createdAt,value
2022-11-02T00:01:25.765Z,101303.53
2022-11-02T00:03:52.388Z,101310.41
2022-11-02T00:06:18.980Z,101305.47
2022-11-02T00:08:45.967Z,101302.09
2022-11-02T00:11:12.634Z,101302.03
2022-11-02T00:13:39.310Z,101311.47
2022-11-02T00:16:10.770Z,101305.53
2022-11-02T00:18:38.071Z,101305.53
2022-11-02T00:21:05.198Z,101304.66
2022-11-02T00:23:32.407Z,101303.13
2022-11-02T00:26:02.542Z,101298.84
2022-11-02T00:28:30.794Z,101306.69
2022-11-02T00:30:57.754Z,101317.91
2022-11-02T00:33:24.526Z,101312.91
2022-11-02T00:35:51.162Z,101311.25
2022-11-02T00:38:17.767Z,101311.44
2022-11-02T00:40:44.490Z,101309.63
2022-11-02T00:43:11.102Z,101317.63
2022-11-02T00:45:37.683Z,101320.28
2022-11-02T00:48:05.192Z,101325.47
2022-11-02T00:50:32.415Z,101322.22
2022-11-02T00:52:59.017Z,101320.53
2022-11-02T00:55:25.783Z,101323.13
2022-11-02T00:57:54.019Z,101323.25
2022-11-02T01:00:20.591Z,101322.38
2022-11-02T01:02:47.281Z,101313.69
2022-11-02T01:05:13.962Z,101307.81
2022-11-02T01:07:40.724Z,101312.19
2022-11-02T01:10:09.113Z,101310.34
2022-11-02T01:12:40.370Z,101311.28
2022-11-02T01:15:08.468Z,101311.28
2022-11-02T01:17:35.344Z,101317.38
2022-11-02T01:20:02.106Z,101317.28
2022-11-02T01:22:28.722Z,101305.34
2022-11-02T01:24:55.591Z,101305.41
2022-11-02T01:27:22.523Z,101307.09
2022-11-02T01:29:49.121Z,101318.38
2022-11-02T01:32:15.719Z,101321.09
2022-11-02T01:34:42.353Z,101309.84
2022-11-02T01:37:10.224Z,101309.22
2022-11-02T01:39:36.833Z,101305.84
2022-11-02T01:42:03.594Z,101296.22
2022-11-02T01:44:35.625Z,101291.97
2022-11-02T01:47:27.033Z,101292.75
2022-11-02T01:50:06.615Z,101290.03
2022-11-02T01:52:36.463Z,101284.78
2022-11-02T01:55:16.690Z,101283.75
2022-11-02T01:57:48.257Z,101291.81
2022-11-02T02:00:16.727Z,101290.97
2022-11-02T02:02:53.620Z,101289.25
2022-11-02T02:05:23.008Z,101294.56
2022-11-02T02:07:50.473Z,101286.78
2022-11-02T02:10:17.252Z,101284.94
2022-11-02T02:12:44.306Z,101280.91
2022-11-02T02:15:12.785Z,101284.22
2022-11-02T02:17:57.426Z,101283.59
2022-11-02T02:20:46.819Z,101286.59
2022-11-02T02:23:32.149Z,101289.16
2022-11-02T02:26:07.914Z,101282.97
2022-11-02T02:28:52.102Z,101277.69
2022-11-02T02:31:22.423Z,101265.53
2022-11-02T02:34:04.910Z,101275.16
2022-11-02T02:36:34.793Z,101275.16
2022-11-02T02:39:14.706Z,101269.22
2022-11-02T02:41:47.741Z,101273.59
2022-11-02T02:44:22.046Z,101276.31
2022-11-02T02:47:27.879Z,101272.09
2022-11-02T02:49:59.210Z,101265.25
2022-11-02T02:52:29.034Z,101267.78
2022-11-02T02:54:59.495Z,101267.78
2022-11-02T02:57:30.606Z,101260.81
2022-11-02T02:59:57.198Z,101263.41
2022-11-02T03:02:38.065Z,101260.97
2022-11-02T03:05:24.182Z,101269.66
2022-11-02T03:07:51.071Z,101266.22
2022-11-02T03:10:42.093Z,101268.00
2022-11-02T03:13:14.770Z,101266.28
2022-11-02T03:15:54.856Z,101263.63
2022-11-02T03:18:27.629Z,101262.47
2022-11-02T03:21:26.146Z,101263.97
2022-11-02T03:24:06.418Z,101261.31
2022-11-02T03:26:43.419Z,101268.13
2022-11-02T03:29:17.091Z,101265.53
2022-11-02T03:31:48.238Z,101266.25
2022-11-02T03:34:30.515Z,101273.03
2022-11-02T03:37:11.900Z,101261.66
2022-11-02T03:39:47.075Z,101265.03
2022-11-02T03:42:18.994Z,101274.53
2022-11-02T03:44:49.423Z,101265.91
2022-11-02T03:47:20.118Z,101266.00
2022-11-02T03:49:50.285Z,101267.91
2022-11-02T03:52:24.535Z,101265.28
2022-11-02T03:54:58.161Z,101255.84
2022-11-02T03:57:33.102Z,101267.22
2022-11-02T04:00:11.433Z,101267.22
2022-11-02T04:02:41.355Z,101269.06
2022-11-02T04:05:08.362Z,101268.22
2022-11-02T04:07:59.408Z,101265.84
2022-11-02T04:10:26.395Z,101255.38
2022-11-02T04:13:11.799Z,101268.28
2022-11-02T04:15:38.424Z,101261.44
2022-11-02T04:18:23.534Z,101264.94
2022-11-02T04:20:51.020Z,101257.94
2022-11-02T04:23:36.870Z,101259.53
2022-11-02T04:26:04.697Z,101253.63
2022-11-02T04:28:31.305Z,101257.25
2022-11-02T04:31:01.046Z,101261.47
2022-11-02T04:33:33.660Z,101263.31
2022-11-02T04:36:01.758Z,101268.56
2022-11-02T04:38:42.003Z,101271.22
2022-11-02T04:41:27.215Z,101273.81
2022-11-02T04:43:54.426Z,101278.25
2022-11-02T04:46:22.960Z,101266.84
2022-11-02T04:48:49.905Z,101273.34
2022-11-02T04:51:16.700Z,101270.09
2022-11-02T04:53:43.363Z,101271.94
2022-11-02T04:56:10.115Z,101264.94
2022-11-02T04:58:36.741Z,101267.56
2022-11-02T05:01:14.258Z,101269.19
2022-11-02T05:03:41.746Z,101268.38
2022-11-02T05:06:11.150Z,101258.03
2022-11-02T05:08:38.297Z,101266.69
2022-11-02T05:11:05.579Z,101258.09
2022-11-02T05:13:34.878Z,101254.41
2022-11-02T05:16:01.992Z,101257.16
2022-11-02T05:18:29.799Z,101263.06
2022-11-02T05:21:04.940Z,101262.88
2022-11-02T05:23:31.882Z,101266.25
2022-11-02T05:26:03.597Z,101252.34
2022-11-02T05:28:33.925Z,101261.75
2022-11-02T05:31:10.004Z,101245.53
2022-11-02T05:33:40.131Z,101249.69
2022-11-02T05:36:11.845Z,101252.34
2022-11-02T05:38:41.609Z,101257.50
2022-11-02T05:41:09.895Z,101261.03
2022-11-02T05:43:44.171Z,101264.31
2022-11-02T05:46:17.691Z,101266.25
2022-11-02T05:48:44.781Z,101252.28
2022-11-02T05:51:14.763Z,101259.53
2022-11-02T05:53:41.857Z,101251.69
2022-11-02T05:56:13.671Z,101263.13
2022-11-02T05:58:43.505Z,101262.28
2022-11-02T06:01:16.985Z,101258.81
2022-11-02T06:03:53.714Z,101261.63
2022-11-02T06:06:22.638Z,101265.91
2022-11-02T06:08:49.436Z,101259.16
2022-11-02T06:11:17.542Z,101255.72
2022-11-02T06:13:45.470Z,101257.59
2022-11-02T06:16:21.493Z,101250.25
2022-11-02T06:18:49.976Z,101249.34
2022-11-02T06:21:16.932Z,101256.09
2022-11-02T06:23:43.900Z,101256.56
2022-11-02T06:26:12.786Z,101251.91
2022-11-02T06:28:39.588Z,101257.09
2022-11-02T06:31:06.574Z,101259.53
2022-11-02T06:33:33.455Z,101268.13
2022-11-02T06:36:03.238Z,101279.13
2022-11-02T06:38:30.032Z,101269.50
2022-11-02T06:41:07.037Z,101272.41
2022-11-02T06:43:36.499Z,101276.31
2022-11-02T06:46:03.399Z,101287.41
2022-11-02T06:48:34.965Z,101277.41
2022-11-02T06:51:03.004Z,101285.16
2022-11-02T06:53:33.590Z,101272.97
2022-11-02T06:56:06.640Z,101279.28
2022-11-02T06:58:33.400Z,101274.34
2022-11-02T07:01:02.943Z,101277.66
2022-11-02T07:03:30.798Z,101285.22
2022-11-02T07:06:14.432Z,101297.56
2022-11-02T07:09:00.509Z,101279.25
2022-11-02T07:11:48.129Z,101283.41
2022-11-02T07:14:21.387Z,101284.31
2022-11-02T07:17:00.731Z,101292.94
2022-11-02T07:19:27.843Z,101288.28
2022-11-02T07:21:55.023Z,101289.75
2022-11-02T07:24:22.342Z,101273.47
2022-11-02T07:26:53.169Z,101277.78
2022-11-02T07:29:25.485Z,101284.28
2022-11-02T07:31:56.530Z,101305.44
2022-11-02T07:34:33.339Z,101300.75
2022-11-02T07:37:08.741Z,101292.63
2022-11-02T07:39:38.049Z,101295.16
2022-11-02T07:42:08.113Z,101293.66
2022-11-02T07:44:35.088Z,101298.22
2022-11-02T07:47:07.518Z,101308.19
2022-11-02T07:49:39.449Z,101312.81
2022-11-02T07:52:14.430Z,101307.06
2022-11-02T07:54:49.872Z,101305.69
2022-11-02T07:57:22.405Z,101310.34
2022-11-02T08:00:03.940Z,101310.47
2022-11-02T08:02:33.646Z,101312.81
2022-11-02T08:08:23.545Z,101322.44
2022-11-02T08:10:59.157Z,101316.22
2022-11-02T08:13:34.181Z,101316.00
2022-11-02T08:16:10.024Z,101307.06
2022-11-02T08:18:57.537Z,101310.00
2022-11-02T08:21:54.911Z,101304.94
2022-11-02T08:24:29.454Z,101309.16
2022-11-02T08:27:04.009Z,101324.28
2022-11-02T08:29:53.143Z,101315.69
2022-11-02T08:32:38.924Z,101314.47
2022-11-02T08:35:15.658Z,101324.66
2022-11-02T08:37:45.911Z,101311.84
2022-11-02T08:40:25.959Z,101309.72
2022-11-02T08:48:43.737Z,101320.66
2022-11-02T08:51:17.969Z,101318.22
2022-11-02T08:54:05.489Z,101308.41
2022-11-02T08:56:38.686Z,101305.03
2022-11-02T08:59:24.488Z,101309.50
2022-11-02T09:02:14.191Z,101305.06
2022-11-02T09:04:52.725Z,101329.97
2022-11-02T09:07:43.757Z,101319.13
2022-11-02T09:13:08.353Z,101317.81
2022-11-02T09:15:54.342Z,101324.97
2022-11-02T09:19:11.233Z,101319.16
2022-11-02T09:22:16.683Z,101320.72
2022-11-02T09:25:10.516Z,101327.69
2022-11-02T09:28:17.443Z,101324.88
2022-11-02T09:30:58.090Z,101328.72
2022-11-02T09:34:07.572Z,101338.47
2022-11-02T09:37:22.487Z,101333.31
2022-11-02T09:43:54.780Z,101344.97
2022-11-02T09:46:45.280Z,101329.41
2022-11-02T09:49:33.839Z,101349.84
2022-11-02T09:52:15.026Z,101344.88
2022-11-02T09:55:04.694Z,101349.03
2022-11-02T10:04:19.123Z,101351.66
2022-11-02T10:07:54.084Z,101354.38
2022-11-02T10:19:40.183Z,101335.03
2022-11-02T10:22:35.760Z,101348.94
2022-11-02T10:25:24.785Z,101352.69
2022-11-02T10:28:40.686Z,101353.78
2022-11-02T10:31:30.508Z,101352.22
2022-11-02T10:35:34.018Z,101355.22
2022-11-02T10:37:36.453Z,101355.50
2022-11-02T10:47:18.836Z,101346.81
2022-11-02T10:50:23.474Z,101353.34
2022-11-02T10:52:50.291Z,101342.78
2022-11-02T10:55:32.313Z,101357.16
2022-11-02T10:58:04.280Z,101354.69
2022-11-02T11:00:34.740Z,101354.56
2022-11-02T11:03:09.139Z,101364.00
2022-11-02T11:05:59.563Z,101370.25
2022-11-02T11:08:49.879Z,101362.09
2022-11-02T11:11:30.414Z,101372.78
2022-11-02T11:16:57.055Z,101376.41
2022-11-02T11:19:41.769Z,101374.63
2022-11-02T11:22:27.795Z,101385.75
2022-11-02T11:25:27.037Z,101383.03
2022-11-02T11:27:59.643Z,101375.13
2022-11-02T11:33:23.298Z,101371.94
2022-11-02T11:35:55.016Z,101380.78
2022-11-02T11:41:13.344Z,101367.50
2022-11-02T11:43:48.250Z,101375.91
2022-11-02T11:46:33.531Z,101358.59
2022-11-02T11:49:04.790Z,101373.94
2022-11-02T11:51:41.567Z,101366.38
2022-11-02T11:54:27.044Z,101367.81
2022-11-02T11:56:58.858Z,101363.56
2022-11-02T11:59:47.167Z,101371.03
2022-11-02T12:02:27.785Z,101361.06
2022-11-02T12:05:15.377Z,101372.38
2022-11-02T12:08:19.789Z,101375.03
2022-11-02T12:10:52.436Z,101373.94
2022-11-02T12:13:46.841Z,101366.88
2022-11-02T12:16:31.444Z,101366.38
2022-11-02T12:19:15.683Z,101372.72
2022-11-02T12:21:59.823Z,101362.66
2022-11-02T12:24:59.200Z,101363.53
2022-11-02T12:27:37.057Z,101364.59
2022-11-02T12:30:20.811Z,101376.38
2022-11-02T12:33:30.683Z,101364.28
2022-11-02T12:36:16.201Z,101366.47
2022-11-02T12:39:00.183Z,101375.59
2022-11-02T12:41:45.492Z,101376.84
2022-11-02T12:44:31.104Z,101371.94
2022-11-02T12:47:04.177Z,101381.94
2022-11-02T13:00:20.749Z,101392.09
2022-11-02T13:29:19.682Z,101395.72
2022-11-02T13:38:51.583Z,101388.53
2022-11-02T14:17:10.169Z,101400.16
2022-11-02T14:23:11.883Z,101400.97
2022-11-02T14:25:47.689Z,101402.06
2022-11-02T14:28:20.009Z,101395.75
2022-11-02T14:31:08.006Z,101402.19
2022-11-02T14:33:49.644Z,101393.78
2022-11-02T14:36:16.270Z,101410.31
2022-11-02T14:38:42.798Z,101410.75
2022-11-02T14:41:46.807Z,101425.41
2022-11-02T14:44:37.926Z,101430.16
2022-11-02T14:47:13.669Z,101433.25
2022-11-02T14:49:47.493Z,101437.63
2022-11-02T14:52:14.028Z,101444.00
2022-11-02T14:55:06.317Z,101444.41
2022-11-02T14:57:42.831Z,101452.19
2022-11-02T15:00:35.271Z,101449.75
2022-11-02T15:03:02.994Z,101451.09
2022-11-02T15:05:36.520Z,101450.91
2022-11-02T15:08:08.323Z,101454.09
2022-11-02T15:10:41.683Z,101453.06
2022-11-02T15:13:20.737Z,101451.94
2022-11-02T15:15:50.398Z,101461.53
2022-11-02T15:18:31.535Z,101456.13
2022-11-02T15:21:13.037Z,101461.28
2022-11-02T15:24:15.548Z,101461.63
2022-11-02T15:26:59.044Z,101469.22
2022-11-02T15:29:28.618Z,101462.94
2022-11-02T15:31:57.995Z,101461.94
2022-11-02T15:34:41.774Z,101473.31
2022-11-02T15:37:12.922Z,101470.94
2022-11-02T15:39:39.586Z,101476.06
2022-11-02T15:42:41.449Z,101481.16
2022-11-02T15:45:26.823Z,101494.28
2022-11-02T15:48:09.827Z,101495.09
2022-11-02T15:51:04.496Z,101495.50
2022-11-02T15:53:41.298Z,101501.31
2022-11-02T15:56:16.930Z,101491.88
2022-11-02T15:58:53.524Z,101483.41
2022-11-02T16:01:25.646Z,101489.56
2022-11-02T16:03:58.747Z,101484.38
2022-11-02T16:06:31.981Z,101497.59
2022-11-02T16:09:02.743Z,101488.50
2022-11-02T16:11:29.749Z,101496.28
2022-11-02T16:14:16.232Z,101497.88
2022-11-02T16:16:47.830Z,101501.78
2022-11-02T16:19:21.699Z,101501.44
2022-11-02T16:21:50.945Z,101509.84
2022-11-02T16:24:19.154Z,101497.06
2022-11-02T16:26:47.168Z,101498.78
2022-11-02T16:29:26.863Z,101511.75
2022-11-02T16:31:53.559Z,101509.19
2022-11-02T16:34:24.140Z,101517.34
2022-11-02T16:36:51.129Z,101512.25
2022-11-02T16:39:22.692Z,101517.81
2022-11-02T16:41:55.930Z,101519.34
2022-11-02T16:44:30.713Z,101515.06
2022-11-02T16:47:00.424Z,101519.63
2022-11-02T16:49:28.602Z,101526.19
2022-11-02T16:52:00.434Z,101521.16
2022-11-02T16:54:40.733Z,101524.03
2022-11-02T16:57:25.108Z,101530.94
2022-11-02T17:00:05.060Z,101538.09
2022-11-02T17:02:36.763Z,101539.47
2022-11-02T17:05:06.829Z,101539.72
2022-11-02T17:07:40.796Z,101541.25
2022-11-02T17:10:09.340Z,101542.84
2022-11-02T17:12:41.979Z,101541.53
2022-11-02T17:15:19.339Z,101545.78
2022-11-02T17:17:46.504Z,101535.16
2022-11-02T17:20:15.982Z,101540.94
2022-11-02T17:22:53.318Z,101558.91
2022-11-02T17:25:21.519Z,101553.31
2022-11-02T17:27:49.078Z,101558.03
2022-11-02T17:30:35.906Z,101557.72
2022-11-02T17:33:13.665Z,101554.69
2022-11-02T17:35:50.687Z,101555.88
2022-11-02T17:38:20.061Z,101566.69
2022-11-02T17:40:52.102Z,101562.75
2022-11-02T17:43:22.919Z,101563.94
2022-11-02T17:45:57.504Z,101572.09
2022-11-02T17:48:24.974Z,101574.25
2022-11-02T17:50:56.053Z,101576.31
2022-11-02T17:53:24.099Z,101571.34
2022-11-02T17:55:50.726Z,101578.59
2022-11-02T17:58:17.638Z,101578.13
2022-11-02T18:00:44.596Z,101577.47
2022-11-02T18:03:20.261Z,101576.88
2022-11-02T18:05:50.970Z,101578.47
2022-11-02T18:08:19.548Z,101576.88
2022-11-02T18:10:48.063Z,101577.91
2022-11-02T18:13:18.222Z,101579.84
2022-11-02T18:15:45.297Z,101573.91
2022-11-02T18:18:12.043Z,101575.91
2022-11-02T18:20:41.869Z,101583.09
2022-11-02T18:23:15.577Z,101571.22
2022-11-02T18:25:42.367Z,101579.09
2022-11-02T18:28:09.177Z,101584.72
2022-11-02T18:30:35.972Z,101583.09
2022-11-02T18:33:02.954Z,101579.97
2022-11-02T18:35:29.806Z,101583.59
2022-11-02T18:37:56.728Z,101577.69
2022-11-02T18:40:23.362Z,101582.16
2022-11-02T18:42:50.037Z,101578.00
2022-11-02T18:45:16.849Z,101585.16
2022-11-02T18:47:43.884Z,101579.28
2022-11-02T18:50:20.585Z,101585.06
2022-11-02T18:52:49.696Z,101590.28
2022-11-02T18:55:17.206Z,101589.69
2022-11-02T18:57:50.613Z,101591.69
2022-11-02T19:00:17.532Z,101589.28
2022-11-02T19:02:44.132Z,101573.97
2022-11-02T19:05:30.709Z,101579.81
2022-11-02T19:08:19.292Z,101580.19
2022-11-02T19:10:50.120Z,101588.19
2022-11-02T19:13:16.870Z,101583.13
2022-11-02T19:15:43.529Z,101586.50
2022-11-02T19:18:10.118Z,101589.31
2022-11-02T19:20:36.798Z,101587.78
2022-11-02T19:23:03.507Z,101590.69
2022-11-02T19:25:30.070Z,101591.47
2022-11-02T19:27:56.911Z,101596.69
2022-11-02T19:30:23.467Z,101593.50
2022-11-02T19:32:50.030Z,101586.16
2022-11-02T19:35:16.709Z,101589.63
2022-11-02T19:37:43.268Z,101590.69
2022-11-02T19:40:10.590Z,101594.28
2022-11-02T19:42:37.155Z,101600.34
2022-11-02T19:45:03.966Z,101598.03
2022-11-02T19:47:30.553Z,101597.16
2022-11-02T19:49:57.123Z,101599.91
2022-11-02T19:52:23.930Z,101602.56
2022-11-02T19:54:50.550Z,101595.00
2022-11-02T19:57:17.103Z,101594.91
2022-11-02T19:59:43.678Z,101588.94
2022-11-02T20:02:11.253Z,101593.44
2022-11-02T20:04:42.145Z,101603.88
2022-11-02T20:07:09.191Z,101611.81
2022-11-02T20:09:36.117Z,101617.09
2022-11-02T20:12:04.304Z,101609.53
2022-11-02T20:14:31.065Z,101606.78
2022-11-02T20:17:04.503Z,101614.50
2022-11-02T20:19:44.215Z,101617.25
2022-11-02T20:22:10.879Z,101616.34
2022-11-02T20:24:37.508Z,101627.88
2022-11-02T20:27:06.634Z,101623.75
2022-11-02T20:29:37.377Z,101617.06
2022-11-02T20:32:10.441Z,101613.69
2022-11-02T20:34:37.442Z,101618.97
2022-11-02T20:37:06.239Z,101620.00
2022-11-02T20:39:33.479Z,101609.69
2022-11-02T20:42:00.653Z,101616.69
2022-11-02T20:44:30.026Z,101615.88
2022-11-02T20:46:56.723Z,101631.41
2022-11-02T20:49:48.950Z,101613.34
2022-11-02T20:52:13.655Z,101618.50
2022-11-02T20:54:42.372Z,101627.84
2022-11-02T20:57:12.153Z,101627.09
2022-11-02T20:59:41.371Z,101623.69
2022-11-02T21:02:13.607Z,101638.38
2022-11-02T21:04:40.580Z,101637.44
2022-11-02T21:07:08.073Z,101632.38
2022-11-02T21:09:35.438Z,101639.31
2022-11-02T21:12:20.982Z,101639.25
2022-11-02T21:14:48.055Z,101636.63
2022-11-02T21:17:15.694Z,101641.06
2022-11-02T21:19:42.732Z,101640.50
2022-11-02T21:22:09.512Z,101635.78
2022-11-02T21:24:36.171Z,101633.44
2022-11-02T21:27:05.808Z,101644.81
2022-11-02T21:29:33.554Z,101636.44
2022-11-02T21:32:00.731Z,101638.97
2022-11-02T21:34:27.406Z,101638.25
2022-11-02T21:36:54.172Z,101636.50
2022-11-02T21:39:24.477Z,101627.16
2022-11-02T21:41:54.079Z,101636.72
2022-11-02T21:44:20.754Z,101632.34
2022-11-02T21:46:50.572Z,101643.50
2022-11-02T21:49:17.292Z,101646.19
2022-11-02T21:51:43.936Z,101636.00
2022-11-02T21:54:11.450Z,101642.94
2022-11-02T21:56:38.484Z,101636.03
2022-11-02T21:59:11.268Z,101625.00
2022-11-02T22:01:44.810Z,101634.38
2022-11-02T22:04:24.992Z,101634.47
2022-11-02T22:06:52.339Z,101618.06
2022-11-02T22:09:22.692Z,101621.56
2022-11-02T22:12:09.406Z,101621.75
2022-11-02T22:14:37.210Z,101626.81
2022-11-02T22:17:16.028Z,101620.84
2022-11-02T22:19:50.922Z,101622.72
2022-11-02T22:22:20.847Z,101622.88
2022-11-02T22:24:47.788Z,101612.75
2022-11-02T22:27:14.727Z,101623.84
2022-11-02T22:32:56.941Z,101606.69
2022-11-02T22:35:23.571Z,101617.00
2022-11-02T22:38:08.688Z,101607.72
2022-11-02T22:40:35.314Z,101621.44
2022-11-02T22:43:01.983Z,101613.09
2022-11-02T22:45:28.583Z,101613.84
2022-11-02T22:47:55.315Z,101611.50
2022-11-02T22:50:23.801Z,101619.25
2022-11-02T22:52:55.048Z,101605.41
2022-11-02T22:55:23.753Z,101595.22
2022-11-02T22:57:58.769Z,101592.66
2022-11-02T23:00:26.675Z,101590.84
2022-11-02T23:02:53.343Z,101596.19
2022-11-02T23:05:19.996Z,101594.38
2022-11-02T23:07:46.610Z,101598.81
2022-11-02T23:10:33.261Z,101611.56
2022-11-02T23:12:59.962Z,101601.25
2022-11-02T23:15:26.643Z,101597.09
2022-11-02T23:17:53.767Z,101602.34
2022-11-02T23:20:20.359Z,101596.53
2022-11-02T23:22:46.995Z,101587.00
2022-11-02T23:25:18.185Z,101593.16
2022-11-02T23:28:06.068Z,101600.78
2022-11-02T23:30:56.049Z,101595.53
2022-11-02T23:33:27.806Z,101593.81
2022-11-02T23:36:13.796Z,101593.97
2022-11-02T23:39:02.436Z,101590.59
2022-11-02T23:41:30.671Z,101589.69
2022-11-02T23:44:14.268Z,101590.63
2022-11-02T23:46:42.992Z,101579.53
2022-11-02T23:49:10.466Z,101578.81
2022-11-02T23:51:56.049Z,101593.50
2022-11-02T23:54:41.660Z,101581.50
2022-11-02T23:57:08.322Z,101583.31
2022-11-02T23:59:34.974Z,101566.22
